Le climat d'Avril 2010 à Pontoise - Val d'Oise
Pontoise fait partie de l'agglomération de Cergy Pontoise

Cliquez ici, pour voir le temps en direct et ici pour installer la météo de Pontoise en temps réel sur votre PC.

Tableau des données
Graphique des températures
Graphique des précipitations et humidité
Graphique de la pression atmosphérique
Rose des vents
Commentaires

 

Date Vitesse vent (en km/h) Vent maxi Vent mini Humidité (en %) Humidité min Humidité max Température (en°C) Temp Min Temp max Press. Atm (Hpa) Press. Mini (Hpa) Press Maxi. (Hpa) Pluie    (mm)
01/04/2010 8,0 27,0 0,0 30,0 14,0 65,0 8,1 1,3 18,2 1008,0 1002,0 1011,0 0,0
02/04/2010 7,0 28,0 0,0 47,0 19,0 91,0 7,3 2,2 16,5 1005,7 1002,0 1010,0 5,0
03/04/2010 8,0 32,0 0,0 51,0 17,0 94,0 9,2 5,8 16,1 1001,1 998,0 1004,0 2,0
04/04/2010 10,0 41,0 0,0 44,0 16,0 75,0 8,1 1,2 16,7 1007,6 998,0 1019,0 4,0
05/04/2010 4,0 23,0 0,0 48,0 14,0 90,0 8,1 -0,3 21,0 1022,5 1019,0 1024,0 0,0
06/04/2010 3,0 22,0 0,0 45,0 13,0 90,0 11,4 0,6 25,3 1015,3 1010,0 1022,0 0,0
07/04/2010 5,0 25,0 0,0 46,0 13,0 83,0 12,1 4,6 23,9 1012,7 1010,0 1018,0 0,0
08/04/2010 5,0 22,0 0,0 48,0 15,0 90,0 11,1 4,7 18,7 1023,3 1018,0 1028,0 1,0
09/04/2010 5,0 21,0 0,0 42,0 15,0 83,0 10,4 1,1 20,8 1028,1 1027,0 1029,0 0,0
10/04/2010 6,0 22,0 0,0 42,0 15,0 89,0 11,2 4,6 19,2 1026,1 1023,0 1028,0 0,0
11/04/2010 8,0 30,0 0,0 36,0 15,0 82,0 9,2 3,8 17,3 1020,0 1017,0 1024,0 0,0
12/04/2010 8,0 32,0 0,0 36,0 16,0 87,0 9,0 2,1 16,6 1016,1 1013,0 1018,0 0,0
13/04/2010 8,0 28,0 0,0 30,0 15,0 62,0 12,2 6,4 19,7 1013,1 1011,0 1014,0 0,0
14/04/2010 6,0 21,0 0,0 34,0 15,0 72,0 10,2 6,0 19,5 1012,9 1011,0 1014,0 0,0
15/04/2010 6,0 28,0 0,0 41,0 15,0 87,0 11,2 2,3 18,8 1013,8 1013,0 1016,0 0,0
16/04/2010 8,0 25,0 0,0 28,0 16,0 50,0 10,2 4,7 17,6 1018,4 1016,0 1020,0 0,0
17/04/2010 4,0 17,0 0,0 39,0 13,0 88,0 11,3 1,4 25,7 1016,2 1012,0 1020,0 0,0
18/04/2010 2,0 14,0 0,0 37,0 11,0 83,0 13,3 1,1 28,1 1010,0 1008,0 1012,0 0,0
19/04/2010 2,0 18,0 0,0 33,0 12,0 78,0 13,1 2,1 27,8 1011,4 1010,0 1012,0 0,0
20/04/2010 3,0 21,0 0,0 34,0 14,0 79,0 11,4 2,8 22,5 1013,6 1011,0 1016,0 0,0
21/04/2010 3,0 18,0 0,0 33,0 13,0 78,0 10,7 -0,8 23,0 1015,0   1017,0 0,0
22/04/2010 7,0 21,0 0,0 22,0 15,0 46,0 10,4 3,0 20,5 1012,0 1009,0 1015,0 0,0
23/04/2010 5,0 18,0 0,0 25,0 13,0 72,0 11,7 0,6 23,9 1010,4 1009,0 1012,0 0,0
24/04/2010 2,0 16,0 0,0 30,0 11,0 78,0 14,8 1,4 30,7 1013,6 1012,0 1015,0 0,0
25/04/2010 4,0 23,0 0,0 31,0 11,0 68,0 15,7 6,0 28,9 1017,4 1015,0 1021,0 0,0
26/04/2010 3,0 21,0 0,0 45,0 14,0 85,0 12,5 5,6 21,4 1023,1 1021,0 1024,0 0,0
27/04/2010 3,0 21,0 0,0 43,0 12,0 89,0 14,3 3,9 27,2 1023,7 1022,0 1025,0 0,0
28/04/2010 3,0 20,0 0,0 35,0 10,0 85,0 18,5 5,3 31,9 1018,1 1013,0 1022,0 0,0
29/04/2010 5,0 28,0 0,0 31,0 9,0 81,0 21,0 9,3 34,3 1007,8 1003,0 1013,0 0,0
30/04/2010 6,0 26,0 0,0 30,0 13,0 60,0 15,5 8,4 23,8 1008,4 1005,0 1010,0 0,0
Somme / moy 5,2 23,6 0,0 37,2 13,8 78,7 11,8 3,4 22,5 1014,8 998 1029,0 12,0

températures

Pluie

Pression

Vent

Bilan              
Pression atmosphérique la plus basse : 998,0 HPa
Pression atmosphérique la plus haute : 1027,0 HPa
Température la plus basse : -0,8  °C
Température la plus élevée : 34,3  °C
Moyenne minima : 3,4  °C
Moyenne maxima : 22,5  °C
Moyenne : 12,9  °C
Humidité la plus basse  : 9,0  %
Humidité la plus élevée : 94,0  %
Total précipitations : 12,0  mm
Nombre de jours de pluie : 4
Nombre de jours > 1mm : 4
Nombre de jours > 10 mm : 0

 

Retour au sommaire